Time;durP1;ratioP1;P1;durP2;ratioP2;P2;SDS_P1;SDS_P2;PMS_P1;PMS_P2;Temp;Humidity;BMP_temperature;BMP_pressure;BME280_temperature;BME280_humidity;BME280_pressure;Samples;Min_cycle;Max_cycle;Signal;HPM_P1;HPM_P2
2022/09/21 00:01:51;;;;;;;1999.90;999.90;;;9.70;99.90;;;;;;6647060;89;20210;-81
2022/09/21 00:11:53;;;;;;;1999.90;999.90;;;9.50;99.90;;;;;;6645862;89;20223;-81
2022/09/21 00:21:54;;;;;;;1999.90;999.90;;;9.30;99.90;;;;;;6648207;88;20541;-81
2022/09/21 00:31:54;;;;;;;1999.90;999.90;;;9.30;99.90;;;;;;6648613;88;20732;-81
2022/09/21 00:41:55;;;;;;;1999.90;999.90;;;9.20;99.90;;;;;;6647695;89;20195;-81
2022/09/21 00:51:57;;;;;;;1999.90;999.90;;;9.40;99.90;;;;;;6647771;89;20308;-81
2022/09/21 01:01:58;;;;;;;1999.90;999.90;;;9.30;99.90;;;;;;6647901;89;20211;-82
2022/09/21 01:12:07;;;;;;;1999.90;999.90;;;9.10;99.90;;;;;;6647428;88;20191;-81
2022/09/21 01:22:42;;;;;;;1999.90;999.90;;;8.80;99.90;;;;;;6648103;89;20817;-81
2022/09/21 01:32:54;;;;;;;1999.90;999.90;;;8.60;99.90;;;;;;6647491;89;20692;-81
2022/09/21 01:42:56;;;;;;;1999.90;999.90;;;8.60;99.90;;;;;;6649059;89;20184;-82
2022/09/21 01:53:16;;;;;;;1999.90;999.90;;;8.40;99.90;;;;;;6647734;88;20212;-81
2022/09/21 02:03:24;;;;;;;1999.90;999.90;;;8.40;99.90;;;;;;6650517;88;20276;-81
2022/09/21 02:13:30;;;;;;;1999.90;999.90;;;8.30;99.90;;;;;;6643810;89;20687;-81
2022/09/21 02:23:43;;;;;;;1999.90;999.90;;;8.20;99.90;;;;;;6641022;89;20686;-80
2022/09/21 02:33:59;;;;;;;1999.90;999.90;;;8.10;99.90;;;;;;6641726;88;21728;-80
2022/09/21 02:44:14;;;;;;;1999.90;999.90;;;8.30;99.90;;;;;;6647736;89;20236;-81
2022/09/21 02:54:19;;;;;;;1999.90;999.90;;;8.00;99.90;;;;;;6649681;89;20193;-80
2022/09/21 03:04:21;;;;;;;1999.90;999.90;;;8.00;99.90;;;;;;6650982;88;20206;-80
2022/09/21 03:14:22;;;;;;;1999.90;999.90;;;7.80;99.90;;;;;;6652106;88;20220;-81
2022/09/21 03:34:42;;;;;;;1999.90;999.90;;;7.60;99.90;;;;;;6652202;88;20729;-80
2022/09/21 03:44:43;;;;;;;1999.90;999.90;;;7.40;99.90;;;;;;6648585;89;20213;-81
2022/09/21 03:54:43;;;;;;;1999.90;999.90;;;7.40;99.90;;;;;;6651912;89;20180;-81
2022/09/21 04:04:44;;;;;;;1999.90;999.90;;;7.30;99.90;;;;;;6644611;89;20521;-80
2022/09/21 04:14:45;;;;;;;1999.90;999.90;;;7.20;99.90;;;;;;6662789;89;20281;-79
2022/09/21 04:24:46;;;;;;;1999.90;999.90;;;7.20;99.90;;;;;;6657802;89;20223;-79
2022/09/21 04:34:52;;;;;;;1999.90;999.90;;;7.10;99.90;;;;;;6661084;88;20221;-80
2022/09/21 04:44:53;;;;;;;1999.90;999.90;;;6.90;99.90;;;;;;6661859;88;20210;-80
2022/09/21 04:54:54;;;;;;;1999.90;999.90;;;7.00;99.90;;;;;;6654810;89;20218;-80
2022/09/21 05:04:54;;;;;;;1999.90;999.90;;;7.10;99.90;;;;;;6660925;88;20177;-81
2022/09/21 05:14:55;;;;;;;1999.90;999.90;;;7.20;99.90;;;;;;6662636;88;20172;-82
2022/09/21 05:24:55;;;;;;;1999.90;999.90;;;7.20;99.90;;;;;;6663127;89;20196;-81
2022/09/21 05:35:02;;;;;;;1999.90;999.90;;;7.30;99.90;;;;;;6670057;78;20220;-80
2022/09/21 05:45:03;;;;;;;1999.90;999.90;;;7.30;99.90;;;;;;6714565;87;20221;-80
2022/09/21 06:05:12;;;;;;;1999.90;999.90;;;7.50;99.90;;;;;;6749390;87;20210;-82
2022/09/21 06:15:14;;;;;;;1999.90;999.90;;;7.40;99.90;;;;;;6785117;87;20193;-82
2022/09/21 06:25:14;;;;;;;1999.90;999.90;;;7.70;99.90;;;;;;6767792;88;20226;-82
2022/09/21 06:35:15;;;;;;;1999.90;999.90;;;7.70;99.90;;;;;;6730993;88;20261;-83
2022/09/21 06:45:15;;;;;;;1999.90;999.90;;;8.00;99.90;;;;;;6731240;88;20158;-82
2022/09/21 06:55:16;;;;;;;1999.90;999.90;;;8.40;99.90;;;;;;6731242;88;20479;-82
2022/09/21 07:05:16;;;;;;;1999.90;999.90;;;8.20;99.90;;;;;;6759593;88;20917;-82
2022/09/21 07:15:20;;;;;;;1999.90;999.90;;;8.20;99.90;;;;;;6768134;88;20208;-82
2022/09/21 07:25:21;;;;;;;1999.90;999.90;;;8.30;99.90;;;;;;6733401;88;20175;-83
2022/09/21 07:35:21;;;;;;;1999.90;999.90;;;8.60;99.90;;;;;;6733004;88;20166;-82
2022/09/21 07:45:23;;;;;;;1999.90;999.90;;;8.60;99.90;;;;;;6733023;88;20253;-82
2022/09/21 07:55:23;;;;;;;1999.90;999.90;;;9.70;99.90;;;;;;6729283;88;20173;-83
2022/09/21 08:05:24;;;;;;;1999.90;999.90;;;10.10;99.90;;;;;;6743903;88;20849;-82
2022/09/21 08:15:25;;;;;;;1999.90;999.90;;;10.60;99.90;;;;;;6750135;88;20217;-82
2022/09/21 08:25:26;;;;;;;1999.90;999.90;;;11.20;99.90;;;;;;6761881;88;20798;-82
2022/09/21 08:35:26;;;;;;;1999.90;999.90;;;11.30;99.90;;;;;;6749657;88;20207;-82
2022/09/21 08:45:36;;;;;;;1999.90;999.90;;;12.00;99.90;;;;;;6749609;88;20232;-83
2022/09/21 08:55:37;;;;;;;1999.90;999.90;;;12.80;99.90;;;;;;6749395;88;20273;-81
2022/09/21 09:06:06;;;;;;;1999.90;999.90;;;13.30;99.90;;;;;;6765095;88;20183;-83
2022/09/21 09:16:40;;;;;;;1999.90;999.90;;;14.80;99.90;;;;;;6732249;88;20147;-83
2022/09/21 09:27:03;;;;;;;1999.90;999.90;;;14.60;99.90;;;;;;6732361;88;20184;-83
2022/09/21 09:37:12;;;;;;;1999.90;999.90;;;16.10;99.90;;;;;;6731747;88;20825;-84
2022/09/21 09:47:18;;;;;;;1999.90;999.90;;;16.50;99.90;;;;;;6731718;88;20171;-83
2022/09/21 09:57:28;;;;;;;1999.90;999.90;;;17.10;99.90;;;;;;6731646;88;20166;-84
2022/09/21 10:07:44;;;;;;;1999.90;999.90;;;16.20;99.90;;;;;;6694646;88;20187;-84
2022/09/21 11:28:46;;;;;;;1999.90;999.90;;;24.40;98.00;;;;;;6969077;77;20170;-78
2022/09/21 11:39:15;;;;;;;1999.90;999.90;;;24.20;98.10;;;;;;6759481;88;20186;-78
2022/09/21 13:30:18;;;;;;;1999.90;999.90;;;25.00;92.40;;;;;;6712290;88;20558;-79
2022/09/21 13:40:47;;;;;;;1999.90;999.90;;;25.40;90.80;;;;;;6695368;89;20175;-79
2022/09/21 14:11:21;;;;;;;1999.90;999.90;;;26.30;88.00;;;;;;6695779;89;20666;-79
2022/09/21 14:41:40;;;;;;;1999.90;999.90;;;25.10;87.80;;;;;;6686529;89;20187;-78
2022/09/21 14:52:24;;;;;;;1999.90;999.90;;;24.20;86.10;;;;;;6664900;89;20302;-78
2022/09/21 15:02:28;;;;;;;1999.90;999.90;;;23.20;89.20;;;;;;6636581;89;20180;-77
2022/09/21 15:12:54;;;;;;;1999.90;999.90;;;24.40;83.10;;;;;;6642263;89;20228;-77
2022/09/21 15:22:57;;;;;;;1999.90;999.90;;;23.00;86.40;;;;;;6646614;89;20306;-78
2022/09/21 15:33:01;;;;;;;1999.90;999.90;;;22.20;89.30;;;;;;6647465;89;20199;-79
2022/09/21 15:43:12;;;;;;;1999.90;999.90;;;22.40;84.50;;;;;;6652353;88;20248;-78
2022/09/21 15:53:29;;;;;;;1999.90;999.90;;;22.70;88.30;;;;;;6665256;89;20270;-79
2022/09/21 16:03:30;;;;;;;1999.90;999.90;;;22.00;89.10;;;;;;6667970;88;20188;-78
2022/09/21 16:23:54;;;;;;;1999.90;999.90;;;21.70;88.00;;;;;;6663086;88;20187;-77
2022/09/21 16:33:55;;;;;;;1999.90;999.90;;;21.30;87.20;;;;;;6664884;88;20186;-77
2022/09/21 16:43:57;;;;;;;1999.90;999.90;;;20.70;87.10;;;;;;6673435;88;20212;-76
2022/09/21 16:53:58;;;;;;;1999.90;999.90;;;19.50;90.10;;;;;;6671246;88;20538;-76
2022/09/21 17:03:59;;;;;;;1999.90;999.90;;;19.10;90.60;;;;;;6671396;88;20337;-78
2022/09/21 17:14:02;;;;;;;1999.90;999.90;;;18.50;92.50;;;;;;6675003;88;20230;-78
2022/09/21 17:24:03;;;;;;;1999.90;999.90;;;18.00;94.30;;;;;;6685893;89;20191;-77
2022/09/21 17:34:09;;;;;;;1999.90;999.90;;;17.40;94.50;;;;;;6711277;87;20250;-77
2022/09/21 17:44:16;;;;;;;1999.90;999.90;;;16.60;96.00;;;;;;6694689;88;20188;-77
2022/09/21 17:54:16;;;;;;;1999.90;999.90;;;16.30;98.50;;;;;;6667800;88;20676;-78
2022/09/21 18:04:17;;;;;;;1999.90;999.90;;;15.80;98.40;;;;;;6677484;89;20259;-78
2022/09/21 18:14:57;;;;;;;1999.90;999.90;;;15.60;98.60;;;;;;6674711;88;20199;-79
2022/09/21 18:24:59;;;;;;;1999.90;999.90;;;15.10;99.90;;;;;;6669188;88;20184;-78
2022/09/21 18:35:18;;;;;;;1999.90;999.90;;;14.60;99.90;;;;;;6677706;88;20210;-77
2022/09/21 18:45:28;;;;;;;1999.90;999.90;;;14.10;99.90;;;;;;6678889;88;20203;-79
2022/09/21 18:55:31;;;;;;;1999.90;999.90;;;13.90;99.90;;;;;;6675743;88;20269;-79
2022/09/21 19:05:33;;;;;;;1999.90;999.90;;;13.50;99.90;;;;;;6676791;88;20179;-79
2022/09/21 19:16:10;;;;;;;1999.90;999.90;;;13.10;99.90;;;;;;6680099;88;20221;-78
2022/09/21 19:26:31;;;;;;;1999.90;999.90;;;12.90;99.90;;;;;;6680399;88;20202;-79
2022/09/21 19:36:31;;;;;;;1999.90;999.90;;;12.60;99.90;;;;;;6677037;88;20256;-77
2022/09/21 19:47:11;;;;;;;1999.90;999.90;;;12.50;99.90;;;;;;6676593;88;20219;-79
2022/09/21 20:07:47;;;;;;;1999.90;999.90;;;12.00;99.90;;;;;;6672761;89;20199;-79
2022/09/21 20:17:53;;;;;;;1999.90;999.90;;;12.00;99.90;;;;;;6675042;89;20215;-78
2022/09/21 20:27:55;;;;;;;1999.90;999.90;;;11.50;99.90;;;;;;6664231;89;20188;-79
2022/09/21 20:37:56;;;;;;;1999.90;999.90;;;11.50;99.90;;;;;;6652358;89;20524;-79
2022/09/21 20:48:11;;;;;;;1999.90;999.90;;;11.20;99.90;;;;;;6651594;89;20218;-79
2022/09/21 20:58:12;;;;;;;1999.90;999.90;;;11.10;99.90;;;;;;6652773;89;20195;-82
2022/09/21 21:08:12;;;;;;;1999.90;999.90;;;10.90;99.90;;;;;;6653218;89;20199;-80
2022/09/21 21:18:13;;;;;;;1999.90;999.90;;;10.70;99.90;;;;;;6650328;89;20212;-80
2022/09/21 21:28:14;;;;;;;1999.90;999.90;;;10.40;99.90;;;;;;6653016;89;20217;-79
2022/09/21 21:38:14;;;;;;;1999.90;999.90;;;10.40;99.90;;;;;;6649595;88;20629;-80
2022/09/21 21:48:15;;;;;;;1999.90;999.90;;;10.20;99.90;;;;;;6653199;89;20210;-79
2022/09/21 21:58:15;;;;;;;1999.90;999.90;;;10.10;99.90;;;;;;6654822;89;20202;-80
2022/09/21 22:08:16;;;;;;;1999.90;999.90;;;9.70;99.90;;;;;;6654302;89;20281;-82
2022/09/21 22:18:17;;;;;;;1999.90;999.90;;;9.70;99.90;;;;;;6678086;88;20346;-80
2022/09/21 22:28:17;;;;;;;1999.90;999.90;;;9.50;99.90;;;;;;6679684;88;20513;-81
2022/09/21 22:38:17;;;;;;;1999.90;999.90;;;9.40;99.90;;;;;;6677190;88;20301;-82
2022/09/21 22:48:18;;;;;;;1999.90;999.90;;;9.30;99.90;;;;;;6677254;89;20191;-82
2022/09/21 22:58:19;;;;;;;1999.90;999.90;;;9.40;99.90;;;;;;6659170;88;20188;-81
2022/09/21 23:08:19;;;;;;;1999.90;999.90;;;9.20;99.90;;;;;;6655681;88;20738;-80
2022/09/21 23:18:20;;;;;;;1999.90;999.90;;;9.10;99.90;;;;;;6649508;88;20530;-81
2022/09/21 23:28:20;;;;;;;1999.90;999.90;;;8.90;99.90;;;;;;6670251;88;20745;-80
2022/09/21 23:38:21;;;;;;;1999.90;999.90;;;9.10;99.90;;;;;;6672538;89;20192;-81
2022/09/21 23:48:22;;;;;;;1999.90;999.90;;;8.90;99.90;;;;;;6675018;88;20938;-81
2022/09/21 23:58:23;;;;;;;1999.90;999.90;;;8.80;99.90;;;;;;6674533;89;20569;-80
